Rohrersville, Maryland
Current Conditions -  °F | °C
As of 1:45 PM on Tuesday 21 Oct 2014 (Local Time) from KFDK Reporting Station
Broken Clouds Broken Clouds  
Wind Chill: 70°   Ceiling: 12000
Heat Index: 70°   Visibility: 10mi
Dew Point: 46°   Wind: 6mph
Humidity: 43%   Direction: 270°W
Pressure: 29.85"   Gusts: NA
Location:  39.43°N, 77.66°W
Report Text: KFDK 211745Z 27005KT 10SM BKN120 21/08 A2985
Loading
Personal Weather Stations






























Interactive Weather Map
Tropical Storm Tracking
New forecast layout! Learn more

10-Day Weather Forecast

Advertisements
Track Severe Weather on mobile